createdAt,value
2018-04-01T00:00:24.898Z,3.47
2018-04-01T00:01:24.946Z,3.47
2018-04-01T00:02:24.948Z,3.46
2018-04-01T00:03:24.829Z,3.44
2018-04-01T00:04:24.942Z,3.44
2018-04-01T00:05:24.916Z,3.43
2018-04-01T00:06:24.831Z,3.42
2018-04-01T00:07:24.945Z,3.42
2018-04-01T00:08:24.945Z,3.43
2018-04-01T00:09:24.853Z,3.42
2018-04-01T00:10:24.833Z,3.39
2018-04-01T00:11:24.867Z,3.37
2018-04-01T00:12:24.947Z,3.35
2018-04-01T00:13:24.835Z,3.35
2018-04-01T00:14:24.952Z,3.35
2018-04-01T00:15:24.985Z,3.32
2018-04-01T00:16:24.902Z,3.32
2018-04-01T00:17:24.837Z,3.28
2018-04-01T00:18:24.955Z,3.29
2018-04-01T00:19:24.953Z,3.28
2018-04-01T00:20:24.865Z,3.25
2018-04-01T00:21:24.860Z,3.24
2018-04-01T00:22:24.863Z,3.22
2018-04-01T00:23:24.957Z,3.21
2018-04-01T00:24:24.954Z,3.20
2018-04-01T00:25:24.868Z,3.20
2018-04-01T00:26:24.837Z,3.17
2018-04-01T00:27:24.837Z,3.20
2018-04-01T00:28:24.965Z,3.17
2018-04-01T00:29:24.841Z,3.20
2018-04-01T00:30:24.924Z,3.17
2018-04-01T00:31:24.876Z,3.20
2018-04-01T00:32:24.906Z,3.17
2018-04-01T00:33:24.868Z,3.13
2018-04-01T00:34:24.966Z,3.13
2018-04-01T00:35:24.913Z,3.12
2018-04-01T00:36:24.915Z,3.13
2018-04-01T00:37:24.911Z,3.12
2018-04-01T00:38:24.849Z,3.13
2018-04-01T00:39:24.882Z,3.14
2018-04-01T00:40:24.993Z,3.16
2018-04-01T00:41:24.968Z,3.13
2018-04-01T00:42:24.913Z,3.16
2018-04-01T00:43:24.892Z,3.17
2018-04-01T00:44:24.875Z,3.16
2018-04-01T00:45:24.965Z,3.16
2018-04-01T00:46:24.977Z,3.16
2018-04-01T00:47:24.962Z,3.14
2018-04-01T00:48:24.916Z,3.13
2018-04-01T00:49:24.878Z,3.12
2018-04-01T00:50:24.878Z,3.10
2018-04-01T00:51:24.952Z,3.10
2018-04-01T00:52:24.972Z,3.07
2018-04-01T00:53:24.860Z,3.06
2018-04-01T00:54:25.024Z,3.05
2018-04-01T00:55:24.981Z,3.05
2018-04-01T00:56:24.919Z,3.06
2018-04-01T00:57:24.865Z,3.07
2018-04-01T00:58:24.950Z,3.07
2018-04-01T00:59:24.927Z,3.09
2018-04-01T01:00:24.973Z,3.07
2018-04-01T01:01:24.978Z,3.06
2018-04-01T01:02:24.889Z,3.06
2018-04-01T01:03:24.890Z,3.06
2018-04-01T01:04:24.933Z,3.06
2018-04-01T01:05:24.934Z,3.07
2018-04-01T01:06:24.956Z,3.07
2018-04-01T01:07:24.960Z,3.09
2018-04-01T01:08:24.934Z,3.07
2018-04-01T01:09:24.894Z,3.09
2018-04-01T01:10:24.978Z,3.10
2018-04-01T01:11:24.981Z,3.10
2018-04-01T01:12:24.960Z,3.12
2018-04-01T01:13:24.941Z,3.10
2018-04-01T01:14:24.981Z,3.12
2018-04-01T01:15:24.902Z,3.12
2018-04-01T01:16:24.968Z,3.13
2018-04-01T01:17:24.986Z,3.09
2018-04-01T01:18:24.905Z,3.10
2018-04-01T01:19:24.994Z,3.09
2018-04-01T01:20:24.877Z,3.09
2018-04-01T01:21:24.990Z,3.09
2018-04-01T01:22:24.934Z,3.10
2018-04-01T01:23:24.906Z,3.10
2018-04-01T01:24:24.937Z,3.12
2018-04-01T01:25:24.882Z,3.10
2018-04-01T01:26:24.968Z,3.10
2018-04-01T01:27:24.943Z,3.09
2018-04-01T01:28:24.970Z,3.09
2018-04-01T01:29:24.883Z,3.09
2018-04-01T01:30:25.006Z,3.09
2018-04-01T01:31:25.025Z,3.09
2018-04-01T01:32:24.905Z,3.09
2018-04-01T01:33:24.981Z,3.09
2018-04-01T01:34:24.911Z,3.10
2018-04-01T01:35:24.978Z,3.10
2018-04-01T01:36:24.919Z,3.09
2018-04-01T01:37:24.999Z,3.10
2018-04-01T01:38:24.945Z,3.09
2018-04-01T01:39:24.886Z,3.12
2018-04-01T01:40:24.980Z,3.12
2018-04-01T01:41:24.949Z,3.12
2018-04-01T01:42:24.980Z,3.12
2018-04-01T01:43:25.012Z,3.12
2018-04-01T01:44:24.885Z,3.13
2018-04-01T01:45:24.952Z,3.13
2018-04-01T01:46:24.951Z,3.13
2018-04-01T01:47:25.009Z,3.13
2018-04-01T01:48:24.931Z,3.14
2018-04-01T01:49:24.923Z,3.16
2018-04-01T01:50:25.006Z,3.16
2018-04-01T01:51:24.959Z,3.16
2018-04-01T01:52:24.897Z,3.16
2018-04-01T01:53:25.014Z,3.16
2018-04-01T01:54:24.951Z,3.17
2018-04-01T01:55:24.898Z,3.17
2018-04-01T01:56:24.962Z,3.17
2018-04-01T01:57:24.988Z,3.20
2018-04-01T01:58:24.903Z,3.17
2018-04-01T01:59:24.970Z,3.16
2018-04-01T02:00:25.017Z,3.16
2018-04-01T02:01:24.938Z,3.14
2018-04-01T02:02:24.930Z,3.14
2018-04-01T02:03:25.015Z,3.14
2018-04-01T02:04:24.934Z,3.14
2018-04-01T02:05:24.996Z,3.16
2018-04-01T02:06:24.905Z,3.14
2018-04-01T02:07:25.016Z,3.14
2018-04-01T02:08:24.923Z,3.14
2018-04-01T02:09:24.977Z,3.13
2018-04-01T02:10:24.930Z,3.12
2018-04-01T02:11:24.973Z,3.13
2018-04-01T02:12:24.930Z,3.12
2018-04-01T02:13:24.938Z,3.09
2018-04-01T02:14:25.023Z,3.09
2018-04-01T02:15:24.911Z,3.09
2018-04-01T02:16:25.025Z,3.09
2018-04-01T02:17:24.976Z,3.07
2018-04-01T02:18:25.035Z,3.09
2018-04-01T02:19:24.985Z,3.09
2018-04-01T02:20:25.032Z,3.10
2018-04-01T02:21:24.939Z,3.10
2018-04-01T02:22:25.032Z,3.10
2018-04-01T02:23:24.934Z,3.10
2018-04-01T02:24:24.913Z,3.12
2018-04-01T02:25:25.033Z,3.12
2018-04-01T02:26:25.019Z,3.12
2018-04-01T02:27:25.040Z,3.12
2018-04-01T02:28:24.920Z,3.12
2018-04-01T02:29:24.917Z,3.12
2018-04-01T02:30:25.033Z,3.13
2018-04-01T02:31:25.083Z,3.13
2018-04-01T02:32:25.038Z,3.13
2018-04-01T02:33:24.981Z,3.13
2018-04-01T02:34:24.948Z,3.12
2018-04-01T02:35:25.046Z,3.12
2018-04-01T02:36:24.949Z,3.10
2018-04-01T02:37:25.036Z,3.10
2018-04-01T02:38:25.031Z,3.07
2018-04-01T02:39:25.045Z,3.07
2018-04-01T02:40:25.052Z,3.05
2018-04-01T02:41:24.950Z,3.05
2018-04-01T02:42:24.962Z,3.02
2018-04-01T02:43:25.036Z,3.02
2018-04-01T02:44:24.930Z,3.01
2018-04-01T02:45:25.039Z,3.01
2018-04-01T02:46:25.013Z,2.99
2018-04-01T02:47:24.955Z,2.98
2018-04-01T02:48:25.044Z,2.98
2018-04-01T02:49:24.966Z,2.96
2018-04-01T02:50:24.936Z,2.95
2018-04-01T02:51:25.038Z,2.94
2018-04-01T02:52:25.041Z,2.92
2018-04-01T02:53:25.050Z,2.92
2018-04-01T02:54:25.072Z,2.91
2018-04-01T02:55:25.044Z,2.90
2018-04-01T02:56:25.001Z,2.88
2018-04-01T02:57:24.971Z,2.90
2018-04-01T02:58:25.058Z,2.90
2018-04-01T02:59:25.060Z,2.90
2018-04-01T03:00:24.934Z,2.90
2018-04-01T03:01:25.078Z,2.90
2018-04-01T03:02:24.943Z,2.92
2018-04-01T03:03:24.974Z,2.92
2018-04-01T03:04:25.004Z,2.94
2018-04-01T03:05:24.965Z,2.99
2018-04-01T03:06:25.056Z,2.98
2018-04-01T03:07:25.034Z,2.99
2018-04-01T03:08:25.029Z,3.01
2018-04-01T03:09:25.036Z,3.01
2018-04-01T03:10:24.973Z,3.02
2018-04-01T03:11:24.967Z,3.03
2018-04-01T03:12:25.063Z,3.03
2018-04-01T03:13:24.973Z,3.01
2018-04-01T03:14:24.972Z,3.02
2018-04-01T03:15:24.947Z,3.02
2018-04-01T03:16:24.979Z,3.02
2018-04-01T03:17:24.950Z,3.03
2018-04-01T03:18:25.011Z,3.02
2018-04-01T03:19:24.979Z,3.02
2018-04-01T03:20:25.015Z,3.01
2018-04-01T03:21:25.057Z,2.99
2018-04-01T03:22:25.022Z,2.99
2018-04-01T03:23:25.043Z,3.02
2018-04-01T03:24:25.102Z,3.03
2018-04-01T03:25:24.954Z,3.03
2018-04-01T03:26:25.042Z,3.03
2018-04-01T03:27:24.997Z,3.05
2018-04-01T03:28:25.023Z,3.05
2018-04-01T03:29:25.042Z,3.07
2018-04-01T03:30:25.074Z,3.07
2018-04-01T03:31:25.026Z,3.07
2018-04-01T03:32:25.078Z,3.09
2018-04-01T03:33:25.023Z,3.09
2018-04-01T03:34:25.018Z,3.09
2018-04-01T03:35:25.074Z,3.10
2018-04-01T03:36:24.986Z,3.09
2018-04-01T03:37:25.079Z,3.09
2018-04-01T03:38:25.068Z,3.07
2018-04-01T03:39:24.961Z,3.07
2018-04-01T03:40:25.028Z,3.09
2018-04-01T03:41:24.961Z,3.07
2018-04-01T03:42:25.054Z,3.07
2018-04-01T03:43:25.076Z,3.07
2018-04-01T03:44:25.032Z,3.09
2018-04-01T03:45:25.084Z,3.09
2018-04-01T03:46:25.019Z,3.09
2018-04-01T03:47:24.997Z,3.07
2018-04-01T03:48:24.989Z,3.06
2018-04-01T03:49:25.008Z,3.06
2018-04-01T03:50:25.085Z,3.06
2018-04-01T03:51:25.057Z,3.05
2018-04-01T03:52:25.065Z,3.05
2018-04-01T03:53:25.083Z,3.05
2018-04-01T03:54:25.002Z,3.05
2018-04-01T03:55:24.993Z,3.03
2018-04-01T03:56:24.995Z,3.01
2018-04-01T03:57:25.095Z,3.01
2018-04-01T03:58:25.087Z,2.98
2018-04-01T03:59:25.036Z,2.95
2018-04-01T04:00:25.063Z,2.95
2018-04-01T04:01:25.007Z,2.94
2018-04-01T04:02:25.062Z,2.92
2018-04-01T04:03:24.985Z,2.91
2018-04-01T04:04:25.097Z,2.88
2018-04-01T04:05:25.002Z,2.87
2018-04-01T04:06:25.005Z,2.87
2018-04-01T04:07:25.043Z,2.85
2018-04-01T04:08:25.003Z,2.84
2018-04-01T04:09:25.092Z,2.83
2018-04-01T04:10:25.014Z,2.81
2018-04-01T04:11:25.092Z,2.81
2018-04-01T04:12:24.979Z,2.81
2018-04-01T04:13:25.005Z,2.83
2018-04-01T04:14:24.986Z,2.83
2018-04-01T04:15:25.045Z,2.81
2018-04-01T04:16:25.102Z,2.81
2018-04-01T04:17:25.052Z,2.83
2018-04-01T04:18:25.018Z,2.83
2018-04-01T04:19:25.100Z,2.84
2018-04-01T04:20:25.076Z,2.84
2018-04-01T04:21:25.077Z,2.83
2018-04-01T04:22:25.011Z,2.83
2018-04-01T04:23:25.081Z,2.83
2018-04-01T04:24:25.103Z,2.84
2018-04-01T04:25:25.100Z,2.83
2018-04-01T04:26:25.021Z,2.83
2018-04-01T04:27:25.010Z,2.83
2018-04-01T04:28:25.101Z,2.83
2018-04-01T04:29:25.013Z,2.83
2018-04-01T04:30:25.104Z,2.83
2018-04-01T04:31:25.081Z,2.80
2018-04-01T04:32:25.089Z,2.81
2018-04-01T04:33:25.100Z,2.81
2018-04-01T04:34:25.050Z,2.83
2018-04-01T04:35:25.109Z,2.81
2018-04-01T04:36:25.154Z,2.83
2018-04-01T04:37:25.113Z,2.83
2018-04-01T04:38:24.993Z,2.83
2018-04-01T04:39:25.085Z,2.84
2018-04-01T04:40:25.028Z,2.83
2018-04-01T04:41:25.059Z,2.83
2018-04-01T04:42:25.111Z,2.84
2018-04-01T04:43:25.117Z,2.85
2018-04-01T04:44:25.112Z,2.84
2018-04-01T04:45:25.006Z,2.84
2018-04-01T04:46:25.006Z,2.83
2018-04-01T04:47:25.113Z,2.83
2018-04-01T04:48:25.125Z,2.80
2018-04-01T04:49:25.065Z,2.81
2018-04-01T04:50:25.026Z,2.80
2018-04-01T04:51:25.030Z,2.80
2018-04-01T04:52:25.099Z,2.79
2018-04-01T04:53:25.075Z,2.79
2018-04-01T04:54:25.066Z,2.80
2018-04-01T04:55:25.031Z,2.80
2018-04-01T04:56:25.058Z,2.79
2018-04-01T04:57:25.121Z,2.79
2018-04-01T04:58:25.044Z,2.79
2018-04-01T04:59:25.034Z,2.80
2018-04-01T05:00:25.071Z,2.81
2018-04-01T05:01:25.073Z,2.79
2018-04-01T05:02:25.034Z,2.80
2018-04-01T05:03:25.081Z,2.80
2018-04-01T05:04:25.046Z,2.80
2018-04-01T05:05:25.049Z,2.79
2018-04-01T05:06:25.037Z,2.79
2018-04-01T05:07:25.103Z,2.77
2018-04-01T05:08:25.143Z,2.77
2018-04-01T05:09:25.051Z,2.76
2018-04-01T05:10:25.126Z,2.74
2018-04-01T05:11:25.046Z,2.76
2018-04-01T05:12:25.042Z,2.74
2018-04-01T05:13:25.041Z,2.74
2018-04-01T05:14:25.130Z,2.72
2018-04-01T05:15:25.041Z,2.72
2018-04-01T05:16:25.044Z,2.72
2018-04-01T05:17:25.137Z,2.72
2018-04-01T05:18:25.046Z,2.70
2018-04-01T05:19:25.079Z,2.70
2018-04-01T05:20:25.046Z,2.69
2018-04-01T05:21:25.092Z,2.69
2018-04-01T05:22:25.080Z,2.69
2018-04-01T05:23:25.142Z,2.69
2018-04-01T05:24:25.094Z,2.66
2018-04-01T05:25:25.086Z,2.69
2018-04-01T05:26:25.056Z,2.68
2018-04-01T05:27:25.147Z,2.68
2018-04-01T05:28:25.118Z,2.68
2018-04-01T05:29:25.042Z,2.66
2018-04-01T05:30:25.032Z,2.66
2018-04-01T05:31:25.121Z,2.65
2018-04-01T05:32:25.025Z,2.65
2018-04-01T05:33:25.143Z,2.63
2018-04-01T05:34:25.028Z,2.61
2018-04-01T05:35:25.121Z,2.57
2018-04-01T05:36:25.126Z,2.51
2018-04-01T05:37:25.064Z,2.47
2018-04-01T05:38:25.059Z,2.43
2018-04-01T05:39:25.153Z,2.38
2018-04-01T05:40:25.134Z,2.28
2018-04-01T05:41:25.092Z,2.21
2018-04-01T05:42:25.105Z,2.16
2018-04-01T05:43:25.088Z,2.10
2018-04-01T05:44:25.145Z,2.08
2018-04-01T05:45:25.036Z,2.04
2018-04-01T05:46:25.160Z,2.01
2018-04-01T05:47:25.048Z,1.99
2018-04-01T05:48:25.069Z,1.97
2018-04-01T05:49:25.045Z,1.95
2018-04-01T05:50:25.036Z,1.95
2018-04-01T05:51:25.127Z,1.92
2018-04-01T05:52:25.154Z,1.92
2018-04-01T05:53:25.099Z,1.91
2018-04-01T05:54:25.154Z,1.90
2018-04-01T05:55:25.071Z,1.90
2018-04-01T05:56:25.044Z,1.90
2018-04-01T05:57:25.136Z,1.91
2018-04-01T05:58:25.126Z,1.91
2018-04-01T05:59:25.152Z,1.92
2018-04-01T06:00:25.100Z,1.94
2018-04-01T06:01:25.165Z,1.94
2018-04-01T06:02:25.107Z,1.97
2018-04-01T06:03:25.109Z,1.97
2018-04-01T06:04:25.077Z,1.98
2018-04-01T06:05:25.141Z,1.98
2018-04-01T06:06:25.139Z,1.98
2018-04-01T06:07:25.162Z,1.99
2018-04-01T06:08:25.110Z,1.98
2018-04-01T06:09:25.105Z,1.97
2018-04-01T06:10:25.073Z,1.97
2018-04-01T06:11:25.170Z,1.98
2018-04-01T06:12:25.144Z,1.99
2018-04-01T06:13:25.049Z,1.99
2018-04-01T06:14:25.164Z,1.99
2018-04-01T06:15:25.175Z,2.02
2018-04-01T06:16:25.079Z,2.04
2018-04-01T06:17:25.081Z,2.02
2018-04-01T06:18:25.084Z,2.04
2018-04-01T06:19:25.079Z,2.05
2018-04-01T06:20:25.178Z,2.05
2018-04-01T06:21:25.149Z,2.05
2018-04-01T06:22:25.102Z,2.04
2018-04-01T06:23:25.172Z,2.02
2018-04-01T06:24:25.171Z,2.02
2018-04-01T06:25:25.130Z,2.02
2018-04-01T06:26:25.234Z,2.02
2018-04-01T06:27:25.132Z,2.04
2018-04-01T06:28:25.086Z,2.04
2018-04-01T06:29:25.063Z,2.05
2018-04-01T06:30:25.186Z,2.05
2018-04-01T06:31:25.127Z,2.06
2018-04-01T06:32:25.125Z,2.06
2018-04-01T06:33:25.089Z,2.08
2018-04-01T06:34:25.125Z,2.08
2018-04-01T06:35:25.093Z,2.06
2018-04-01T06:36:25.136Z,2.04
2018-04-01T06:37:25.096Z,2.04
2018-04-01T06:38:25.070Z,2.02
2018-04-01T06:39:25.178Z,2.02
2018-04-01T06:40:25.156Z,2.04
2018-04-01T06:41:25.186Z,2.04
2018-04-01T06:42:25.163Z,2.05
2018-04-01T06:43:25.136Z,2.04
2018-04-01T06:44:25.113Z,1.98
2018-04-01T06:45:25.208Z,1.99
2018-04-01T06:46:25.191Z,1.95
2018-04-01T06:47:25.169Z,1.94
2018-04-01T06:48:25.169Z,1.95
2018-04-01T06:49:25.135Z,1.95
2018-04-01T06:50:25.071Z,1.98
2018-04-01T06:51:25.163Z,1.95
2018-04-01T06:52:25.160Z,1.92
2018-04-01T06:53:25.133Z,1.92
2018-04-01T06:54:25.170Z,1.94
2018-04-01T06:55:25.136Z,1.92
2018-04-01T06:56:25.173Z,1.90
2018-04-01T06:57:25.140Z,1.90
2018-04-01T06:58:25.139Z,1.94
2018-04-01T06:59:25.222Z,1.95
2018-04-01T07:00:25.104Z,1.97
2018-04-01T07:01:25.084Z,1.98
2018-04-01T07:02:25.090Z,1.99
2018-04-01T07:03:25.082Z,2.02
2018-04-01T07:04:25.197Z,2.02
2018-04-01T07:05:25.168Z,2.05
2018-04-01T07:06:25.141Z,2.04
2018-04-01T07:07:25.165Z,2.02
2018-04-01T07:08:25.197Z,2.04
2018-04-01T07:09:25.152Z,2.05
2018-04-01T07:10:25.087Z,2.05
2018-04-01T07:11:25.086Z,2.06
2018-04-01T07:12:25.179Z,2.10
2018-04-01T07:13:25.088Z,2.12
2018-04-01T07:14:25.159Z,2.15
2018-04-01T07:15:25.110Z,2.12
2018-04-01T07:16:25.181Z,2.15
2018-04-01T07:17:25.098Z,2.15
2018-04-01T07:18:25.183Z,2.16
2018-04-01T07:19:25.101Z,2.16
2018-04-01T07:20:25.208Z,2.16
2018-04-01T07:21:25.094Z,2.19
2018-04-01T07:22:25.161Z,2.17
2018-04-01T07:23:25.093Z,2.16
2018-04-01T07:24:25.094Z,2.16
2018-04-01T07:25:25.208Z,2.16
2018-04-01T07:26:25.139Z,2.15
2018-04-01T07:27:25.145Z,2.16
2018-04-01T07:28:25.163Z,2.15
2018-04-01T07:29:25.105Z,2.13
2018-04-01T07:30:25.127Z,2.13
2018-04-01T07:31:25.105Z,2.13
2018-04-01T07:32:25.160Z,2.09
2018-04-01T07:33:25.184Z,2.04
2018-04-01T07:34:25.175Z,1.98
2018-04-01T07:35:25.166Z,1.95
2018-04-01T07:36:25.130Z,1.88
2018-04-01T07:37:25.167Z,1.78
2018-04-01T07:38:25.136Z,1.72
2018-04-01T07:39:25.162Z,1.67
2018-04-01T07:40:25.171Z,1.60
2018-04-01T07:41:25.138Z,1.57
2018-04-01T07:42:25.276Z,1.56
2018-04-01T07:43:25.218Z,1.56
2018-04-01T07:44:25.198Z,1.54
2018-04-01T07:45:25.153Z,1.52
2018-04-01T07:46:25.105Z,1.45
2018-04-01T07:47:25.104Z,1.47
2018-04-01T07:48:25.141Z,1.46
2018-04-01T07:49:25.116Z,1.47
2018-04-01T07:50:25.178Z,1.46
2018-04-01T07:51:25.231Z,1.46
2018-04-01T07:52:25.115Z,1.47
2018-04-01T07:53:25.173Z,1.50
2018-04-01T07:54:25.256Z,1.46
2018-04-01T07:55:25.148Z,1.43
2018-04-01T07:56:25.144Z,1.45
2018-04-01T07:57:25.209Z,1.39
2018-04-01T07:58:25.236Z,1.40
2018-04-01T07:59:25.241Z,1.43
2018-04-01T08:00:25.124Z,1.47
2018-04-01T08:01:25.206Z,1.50
2018-04-01T08:02:25.176Z,1.52
2018-04-01T08:03:25.147Z,1.53
2018-04-01T08:04:25.209Z,1.56
2018-04-01T08:05:25.190Z,1.54
2018-04-01T08:06:25.241Z,1.54
2018-04-01T08:07:25.116Z,1.57
2018-04-01T08:08:25.120Z,1.61
2018-04-01T08:09:25.131Z,1.64
2018-04-01T08:10:25.179Z,1.64
2018-04-01T08:11:25.236Z,1.60
2018-04-01T08:12:25.186Z,1.63
2018-04-01T08:13:25.241Z,1.65
2018-04-01T08:14:25.215Z,1.68
2018-04-01T08:15:25.158Z,1.67
2018-04-01T08:16:25.153Z,1.68
2018-04-01T08:17:25.248Z,1.64
2018-04-01T08:18:25.240Z,1.68
2018-04-01T08:19:25.192Z,1.68
2018-04-01T08:20:25.187Z,1.72
2018-04-01T08:21:25.192Z,1.74
2018-04-01T08:22:25.215Z,1.75
2018-04-01T08:23:25.231Z,1.75
2018-04-01T08:24:25.129Z,1.78
2018-04-01T08:25:25.175Z,1.80
2018-04-01T08:26:25.130Z,1.79
2018-04-01T08:27:25.179Z,1.79
2018-04-01T08:28:25.228Z,1.83
2018-04-01T08:29:25.124Z,1.84
2018-04-01T08:30:25.160Z,1.87
2018-04-01T08:31:25.148Z,1.86
2018-04-01T08:32:25.256Z,1.87
2018-04-01T08:33:25.248Z,1.86
2018-04-01T08:34:25.319Z,1.87
2018-04-01T08:35:25.160Z,1.83
2018-04-01T08:36:25.249Z,1.79
2018-04-01T08:37:25.145Z,1.76
2018-04-01T08:38:25.141Z,1.79
2018-04-01T08:39:25.222Z,1.84
2018-04-01T08:40:25.142Z,1.88
2018-04-01T08:41:25.231Z,1.91
2018-04-01T08:42:25.140Z,1.97
2018-04-01T08:43:25.215Z,2.01
2018-04-01T08:44:25.262Z,2.02
2018-04-01T08:45:25.256Z,1.98
2018-04-01T08:46:25.219Z,2.01
2018-04-01T08:47:25.216Z,2.04
2018-04-01T08:48:25.150Z,2.06
2018-04-01T08:49:25.215Z,2.05
2018-04-01T08:50:25.232Z,2.02
2018-04-01T08:51:25.153Z,2.05
2018-04-01T08:52:25.211Z,2.06
2018-04-01T08:53:25.158Z,2.09
2018-04-01T08:54:25.226Z,2.15
2018-04-01T08:55:25.181Z,2.19
2018-04-01T08:56:25.266Z,2.23
2018-04-01T08:57:25.262Z,2.23
2018-04-01T08:58:25.179Z,2.21
2018-04-01T08:59:25.287Z,2.16
2018-04-01T09:00:25.265Z,2.17
2018-04-01T09:01:25.269Z,2.21
2018-04-01T09:02:25.224Z,2.24
2018-04-01T09:03:25.278Z,2.24
2018-04-01T09:04:25.155Z,2.26
2018-04-01T09:05:25.276Z,2.31
2018-04-01T09:06:25.278Z,2.32
2018-04-01T09:07:25.230Z,2.33
2018-04-01T09:08:25.188Z,2.27
2018-04-01T09:09:25.164Z,2.27
2018-04-01T09:10:25.239Z,2.27
2018-04-01T09:11:25.247Z,2.27
2018-04-01T09:12:25.290Z,2.32
2018-04-01T09:13:25.162Z,2.36
2018-04-01T09:14:25.169Z,2.38
2018-04-01T09:15:25.160Z,2.38
2018-04-01T09:16:25.278Z,2.40
2018-04-01T09:17:25.234Z,2.42
2018-04-01T09:18:25.166Z,2.44
2018-04-01T09:19:25.293Z,2.47
2018-04-01T09:20:25.160Z,2.46
2018-04-01T09:21:25.165Z,2.42
2018-04-01T09:22:25.278Z,2.47
2018-04-01T09:23:25.231Z,2.51
2018-04-01T09:24:25.200Z,2.54
2018-04-01T09:25:25.172Z,2.61
2018-04-01T09:26:25.262Z,2.62
2018-04-01T09:27:25.285Z,2.65
2018-04-01T09:28:25.262Z,2.68
2018-04-01T09:29:25.314Z,2.65
2018-04-01T09:30:25.284Z,2.59
2018-04-01T09:31:25.262Z,2.58
2018-04-01T09:32:25.171Z,2.61
2018-04-01T09:33:25.200Z,2.65
2018-04-01T09:34:25.270Z,2.70
2018-04-01T09:35:25.214Z,2.76
2018-04-01T09:36:25.247Z,2.79
2018-04-01T09:37:25.206Z,2.84
2018-04-01T09:38:25.234Z,2.94
2018-04-01T09:39:25.231Z,2.98
2018-04-01T09:40:25.186Z,3.02
2018-04-01T09:41:25.245Z,3.03
2018-04-01T09:42:25.261Z,3.05
2018-04-01T09:43:25.237Z,3.13
2018-04-01T09:44:25.238Z,3.20
2018-04-01T09:45:25.212Z,3.05
2018-04-01T09:46:25.239Z,3.01
2018-04-01T09:47:25.300Z,2.92
2018-04-01T09:48:25.300Z,3.01
2018-04-01T09:49:25.211Z,2.95
2018-04-01T09:50:25.301Z,3.06
2018-04-01T09:51:25.213Z,3.02
2018-04-01T09:52:25.192Z,2.99
2018-04-01T09:53:25.214Z,3.10
2018-04-01T09:54:25.302Z,3.16
2018-04-01T09:55:25.304Z,3.16
2018-04-01T09:56:25.280Z,3.21
2018-04-01T09:57:25.256Z,3.22
2018-04-01T09:58:25.233Z,3.10
2018-04-01T09:59:25.302Z,3.13
2018-04-01T10:00:25.277Z,3.22
2018-04-01T10:01:25.215Z,3.14
2018-04-01T10:02:25.189Z,3.05
2018-04-01T10:03:25.346Z,3.07
2018-04-01T10:04:25.311Z,3.05
2018-04-01T10:05:25.312Z,3.02
2018-04-01T10:06:25.309Z,2.95
2018-04-01T10:07:25.290Z,2.88
2018-04-01T10:08:25.307Z,2.91
2018-04-01T10:09:25.310Z,2.83
2018-04-01T10:10:25.228Z,2.87
2018-04-01T10:11:25.289Z,2.87
2018-04-01T10:12:25.284Z,2.83
2018-04-01T10:13:25.316Z,2.80
2018-04-01T10:14:25.195Z,2.83
2018-04-01T10:15:25.268Z,2.80
2018-04-01T10:16:25.201Z,2.84
2018-04-01T10:17:25.322Z,2.85
2018-04-01T10:18:25.314Z,2.84
2018-04-01T10:19:25.287Z,2.85
2018-04-01T10:20:25.316Z,2.85
2018-04-01T10:21:25.324Z,2.88
2018-04-01T10:22:25.236Z,2.91
2018-04-01T10:23:25.249Z,2.91
2018-04-01T10:24:25.278Z,2.90
2018-04-01T10:25:25.237Z,2.91
2018-04-01T10:26:25.236Z,2.91
2018-04-01T10:27:25.267Z,2.95
2018-04-01T10:28:25.237Z,2.98
2018-04-01T10:29:25.200Z,2.98
2018-04-01T10:30:25.207Z,2.96
2018-04-01T10:31:25.212Z,2.99
2018-04-01T10:32:25.240Z,3.02
2018-04-01T10:33:25.329Z,3.06
2018-04-01T10:34:25.217Z,3.09
2018-04-01T10:35:25.304Z,3.10
2018-04-01T10:36:25.240Z,3.13
2018-04-01T10:37:25.242Z,3.13
2018-04-01T10:38:25.220Z,3.14
2018-04-01T10:39:25.237Z,3.14
2018-04-01T10:40:25.335Z,3.17
2018-04-01T10:41:25.271Z,3.22
2018-04-01T10:42:25.329Z,3.20
2018-04-01T10:43:25.335Z,3.20
2018-04-01T10:44:25.243Z,3.20
2018-04-01T10:45:25.297Z,3.21
2018-04-01T10:46:25.304Z,3.20
2018-04-01T10:47:25.225Z,3.22
2018-04-01T10:48:25.301Z,3.26
2018-04-01T10:49:25.283Z,3.28
2018-04-01T10:50:25.338Z,3.24
2018-04-01T10:51:25.304Z,3.20
2018-04-01T10:52:25.295Z,3.22
2018-04-01T10:53:25.252Z,3.22
2018-04-01T10:54:25.247Z,3.28
2018-04-01T10:55:25.341Z,3.28
2018-04-01T10:56:25.341Z,3.31
2018-04-01T10:57:25.287Z,3.35
2018-04-01T10:58:25.337Z,3.35
2018-04-01T10:59:25.342Z,3.36
2018-04-01T11:00:25.339Z,3.37
2018-04-01T11:01:25.226Z,3.36
2018-04-01T11:02:25.225Z,3.40
2018-04-01T11:03:25.235Z,3.44
2018-04-01T11:04:25.237Z,3.46
2018-04-01T11:05:25.291Z,3.48
2018-04-01T11:06:25.227Z,3.55
2018-04-01T11:07:25.228Z,3.61
2018-04-01T11:08:25.240Z,3.72
2018-04-01T11:09:25.280Z,3.85
2018-04-01T11:10:25.231Z,3.96
2018-04-01T11:11:25.232Z,4.01
2018-04-01T11:12:25.229Z,4.01
2018-04-01T11:13:25.242Z,3.97
2018-04-01T11:14:25.308Z,4.07
2018-04-01T11:15:25.354Z,4.14
2018-04-01T11:16:25.244Z,4.15
2018-04-01T11:17:25.357Z,4.26
2018-04-01T11:18:25.352Z,4.32
2018-04-01T11:19:25.351Z,4.28
2018-04-01T11:20:25.328Z,4.21
2018-04-01T11:21:25.302Z,4.26
2018-04-01T11:22:25.267Z,4.36
2018-04-01T11:23:25.332Z,4.33
2018-04-01T11:24:25.241Z,4.43
2018-04-01T11:25:25.332Z,4.57
2018-04-01T11:26:25.249Z,4.69
2018-04-01T11:27:25.276Z,4.81
2018-04-01T11:28:25.243Z,4.84
2018-04-01T11:29:25.360Z,4.96
2018-04-01T11:30:25.302Z,5.07
2018-04-01T11:31:25.366Z,5.10
2018-04-01T11:32:25.305Z,5.10
2018-04-01T11:33:25.246Z,5.14
2018-04-01T11:34:25.343Z,5.25
2018-04-01T11:35:25.360Z,5.18
2018-04-01T11:36:25.274Z,5.04
2018-04-01T11:37:25.309Z,5.02
2018-04-01T11:38:25.316Z,5.04
2018-04-01T11:39:25.338Z,5.11
2018-04-01T11:40:25.368Z,5.15
2018-04-01T11:41:25.282Z,5.15
2018-04-01T11:42:25.277Z,5.21
2018-04-01T11:43:25.319Z,5.29
2018-04-01T11:44:25.284Z,5.42
2018-04-01T11:45:25.373Z,5.52
2018-04-01T11:46:25.285Z,5.63
2018-04-01T11:47:25.330Z,5.59
2018-04-01T11:48:25.257Z,5.60
2018-04-01T11:49:25.317Z,5.52
2018-04-01T11:50:25.313Z,5.46
2018-04-01T11:51:25.316Z,5.44
2018-04-01T11:52:25.380Z,5.44
2018-04-01T11:53:25.251Z,5.48
2018-04-01T11:54:25.330Z,5.49
2018-04-01T11:55:25.257Z,5.56
2018-04-01T11:56:25.259Z,5.60
2018-04-01T11:57:25.320Z,5.64
2018-04-01T11:58:25.273Z,5.49
2018-04-01T11:59:25.333Z,5.41
2018-04-01T12:00:25.326Z,5.48
2018-04-01T12:01:25.375Z,5.56
2018-04-01T12:02:25.288Z,5.67
2018-04-01T12:03:25.261Z,5.68
2018-04-01T12:04:25.311Z,5.78
2018-04-01T12:05:25.336Z,5.85
2018-04-01T12:06:25.384Z,5.84
2018-04-01T12:07:25.272Z,5.73
2018-04-01T12:08:25.351Z,5.81
2018-04-01T12:09:25.389Z,5.84
2018-04-01T12:10:25.268Z,5.82
2018-04-01T12:11:25.300Z,5.92
2018-04-01T12:12:25.389Z,6.04
2018-04-01T12:13:25.272Z,6.06
2018-04-01T12:14:25.385Z,6.09
2018-04-01T12:15:25.274Z,6.06
2018-04-01T12:16:25.392Z,5.99
2018-04-01T12:17:25.336Z,5.95
2018-04-01T12:18:25.422Z,5.97
2018-04-01T12:19:25.290Z,5.96
2018-04-01T12:20:25.333Z,5.89
2018-04-01T12:21:25.343Z,5.74
2018-04-01T12:22:25.298Z,5.74
2018-04-01T12:23:25.276Z,5.68
2018-04-01T12:24:25.284Z,5.66
2018-04-01T12:25:25.349Z,5.68
2018-04-01T12:26:25.289Z,5.68
2018-04-01T12:27:25.397Z,5.75
2018-04-01T12:28:25.401Z,5.77
2018-04-01T12:29:25.371Z,5.75
2018-04-01T12:30:25.346Z,5.71
2018-04-01T12:31:25.291Z,5.70
2018-04-01T12:32:25.278Z,5.73
2018-04-01T12:33:25.291Z,5.81
2018-04-01T12:34:25.342Z,5.92
2018-04-01T12:35:25.403Z,6.04
2018-04-01T12:36:25.356Z,6.03
2018-04-01T12:37:25.361Z,6.00
2018-04-01T12:38:25.348Z,6.00
2018-04-01T12:39:25.290Z,6.00
2018-04-01T12:40:25.302Z,6.02
2018-04-01T12:41:25.375Z,6.04
2018-04-01T12:42:25.322Z,6.23
2018-04-01T12:43:25.322Z,6.38
2018-04-01T12:44:25.364Z,6.56
2018-04-01T12:45:25.331Z,6.64
2018-04-01T12:46:25.382Z,6.52
2018-04-01T12:47:25.416Z,6.45
2018-04-01T12:48:25.356Z,6.43
2018-04-01T12:49:25.357Z,6.44
2018-04-01T12:50:25.405Z,6.43
2018-04-01T12:51:25.324Z,6.40
2018-04-01T12:52:25.388Z,6.47
2018-04-01T12:53:25.369Z,6.59
2018-04-01T12:54:25.373Z,6.78
2018-04-01T12:55:25.410Z,7.08
2018-04-01T12:56:25.418Z,7.46
2018-04-01T12:57:25.306Z,7.70
2018-04-01T12:58:25.390Z,7.59
2018-04-01T12:59:25.366Z,7.46
2018-04-01T13:00:25.332Z,7.27
2018-04-01T13:01:25.329Z,7.34
2018-04-01T13:02:25.332Z,7.53
2018-04-01T13:03:25.334Z,7.70
2018-04-01T13:04:25.313Z,7.81
2018-04-01T13:05:25.389Z,7.78
2018-04-01T13:06:25.416Z,7.68
2018-04-01T13:07:25.334Z,7.60
2018-04-01T13:08:25.390Z,7.71
2018-04-01T13:09:25.398Z,7.90
2018-04-01T13:10:25.423Z,7.90
2018-04-01T13:11:25.420Z,7.90
2018-04-01T13:12:25.309Z,8.08
2018-04-01T13:13:25.378Z,8.42
2018-04-01T13:14:25.371Z,8.78
2018-04-01T13:15:25.430Z,9.00
2018-04-01T13:16:25.423Z,8.91
2018-04-01T13:17:25.312Z,8.69
2018-04-01T13:18:25.423Z,8.94